Hanley Falls, Minnesota
Current Conditions -  °F | °C
As of 4:13 AM on Sunday 25 Jan 2015 (Local Time) from KGDB Reporting Station
Overcast Overcast  
Wind Chill: 28°   Ceiling: 1100
Heat Index: 32°   Visibility: 10mi
Dew Point: 32°   Wind: 5mph
Humidity: 99%   Direction: 340°NNW
Pressure: 29.84"   Gusts: NA
Location:  44.69°N, 95.62°W
Report Text: KGDB 251013Z AUTO 34004KT 10SM SCT005 OVC011 00/00 A2984 RMK AO2 T00020000
Loading
Personal Weather Stations






























Interactive Weather Map New forecast layout! Learn more

10-Day Weather Forecast

Advertisements
Track Severe Weather on mobile